sensor_id;sensor_type;location;lat;lon;timestamp;P1;durP1;ratioP1;P2;durP2;ratioP2
72517;SDS011;60540;51.178;6.738;2023-09-07T00:00:48;7.25;;;4.13;;
72517;SDS011;60540;51.178;6.738;2023-09-07T00:03:34;6.70;;;4.10;;
72517;SDS011;60540;51.178;6.738;2023-09-07T00:06:00;7.43;;;4.55;;
72517;SDS011;60540;51.178;6.738;2023-09-07T00:08:26;7.00;;;3.80;;
72517;SDS011;60540;51.178;6.738;2023-09-07T00:10:51;14.35;;;4.60;;
72517;SDS011;60540;51.178;6.738;2023-09-07T00:13:17;6.95;;;4.22;;
72517;SDS011;60540;51.178;6.738;2023-09-07T00:15:43;7.35;;;4.22;;
72517;SDS011;60540;51.178;6.738;2023-09-07T00:18:09;7.82;;;4.57;;
72517;SDS011;60540;51.178;6.738;2023-09-07T00:20:35;6.55;;;3.78;;
72517;SDS011;60540;51.178;6.738;2023-09-07T00:23:01;7.38;;;5.25;;
72517;SDS011;60540;51.178;6.738;2023-09-07T00:25:27;6.50;;;4.13;;
72517;SDS011;60540;51.178;6.738;2023-09-07T00:27:53;6.25;;;3.88;;
72517;SDS011;60540;51.178;6.738;2023-09-07T00:30:19;7.53;;;3.88;;
72517;SDS011;60540;51.178;6.738;2023-09-07T00:32:45;8.60;;;3.90;;
72517;SDS011;60540;51.178;6.738;2023-09-07T00:35:11;5.97;;;3.80;;
72517;SDS011;60540;51.178;6.738;2023-09-07T00:37:37;7.03;;;4.03;;
72517;SDS011;60540;51.178;6.738;2023-09-07T00:40:02;8.27;;;4.20;;
72517;SDS011;60540;51.178;6.738;2023-09-07T00:44:54;7.13;;;3.67;;
72517;SDS011;60540;51.178;6.738;2023-09-07T00:47:21;6.30;;;3.50;;
72517;SDS011;60540;51.178;6.738;2023-09-07T00:49:46;7.53;;;3.67;;
72517;SDS011;60540;51.178;6.738;2023-09-07T00:52:12;6.95;;;4.20;;
72517;SDS011;60540;51.178;6.738;2023-09-07T00:54:38;6.72;;;4.07;;
72517;SDS011;60540;51.178;6.738;2023-09-07T00:57:06;6.38;;;3.72;;
72517;SDS011;60540;51.178;6.738;2023-09-07T00:59:32;5.93;;;3.60;;
72517;SDS011;60540;51.178;6.738;2023-09-07T01:01:58;6.38;;;4.05;;
72517;SDS011;60540;51.178;6.738;2023-09-07T01:04:24;5.70;;;3.78;;
72517;SDS011;60540;51.178;6.738;2023-09-07T01:06:51;5.82;;;3.83;;
72517;SDS011;60540;51.178;6.738;2023-09-07T01:09:23;5.65;;;3.70;;
72517;SDS011;60540;51.178;6.738;2023-09-07T01:11:50;6.82;;;3.60;;
72517;SDS011;60540;51.178;6.738;2023-09-07T01:14:16;7.65;;;3.55;;
72517;SDS011;60540;51.178;6.738;2023-09-07T01:16:42;5.40;;;3.22;;
72517;SDS011;60540;51.178;6.738;2023-09-07T01:19:08;7.55;;;3.95;;
72517;SDS011;60540;51.178;6.738;2023-09-07T01:21:35;5.22;;;3.30;;
72517;SDS011;60540;51.178;6.738;2023-09-07T01:24:03;6.72;;;4.15;;
72517;SDS011;60540;51.178;6.738;2023-09-07T01:26:30;7.18;;;3.97;;
72517;SDS011;60540;51.178;6.738;2023-09-07T01:28:56;8.93;;;3.90;;
72517;SDS011;60540;51.178;6.738;2023-09-07T01:31:21;5.68;;;3.30;;
72517;SDS011;60540;51.178;6.738;2023-09-07T01:33:47;5.18;;;3.40;;
72517;SDS011;60540;51.178;6.738;2023-09-07T01:36:13;6.18;;;3.50;;
72517;SDS011;60540;51.178;6.738;2023-09-07T01:38:39;5.97;;;3.58;;
72517;SDS011;60540;51.178;6.738;2023-09-07T01:41:04;6.35;;;4.10;;
72517;SDS011;60540;51.178;6.738;2023-09-07T01:43:30;5.97;;;4.32;;
72517;SDS011;60540;51.178;6.738;2023-09-07T01:45:56;5.50;;;3.75;;
72517;SDS011;60540;51.178;6.738;2023-09-07T01:48:21;5.18;;;3.33;;
72517;SDS011;60540;51.178;6.738;2023-09-07T01:50:51;8.38;;;4.20;;
72517;SDS011;60540;51.178;6.738;2023-09-07T01:53:17;6.35;;;3.67;;
72517;SDS011;60540;51.178;6.738;2023-09-07T01:55:43;5.90;;;3.75;;
72517;SDS011;60540;51.178;6.738;2023-09-07T01:58:09;6.88;;;3.83;;
72517;SDS011;60540;51.178;6.738;2023-09-07T02:00:37;6.57;;;3.72;;
72517;SDS011;60540;51.178;6.738;2023-09-07T02:03:04;6.53;;;3.72;;
72517;SDS011;60540;51.178;6.738;2023-09-07T02:05:31;5.60;;;3.63;;
72517;SDS011;60540;51.178;6.738;2023-09-07T02:10:23;6.72;;;3.35;;
72517;SDS011;60540;51.178;6.738;2023-09-07T02:12:49;6.10;;;3.75;;
72517;SDS011;60540;51.178;6.738;2023-09-07T02:15:15;8.10;;;3.90;;
72517;SDS011;60540;51.178;6.738;2023-09-07T02:17:41;6.88;;;4.00;;
72517;SDS011;60540;51.178;6.738;2023-09-07T02:20:10;5.68;;;4.38;;
72517;SDS011;60540;51.178;6.738;2023-09-07T02:22:37;6.75;;;3.88;;
72517;SDS011;60540;51.178;6.738;2023-09-07T02:25:04;6.43;;;3.72;;
72517;SDS011;60540;51.178;6.738;2023-09-07T02:27:31;7.65;;;3.92;;
72517;SDS011;60540;51.178;6.738;2023-09-07T02:29:58;7.18;;;3.78;;
72517;SDS011;60540;51.178;6.738;2023-09-07T02:32:23;6.22;;;3.70;;
72517;SDS011;60540;51.178;6.738;2023-09-07T02:34:49;7.72;;;3.92;;
72517;SDS011;60540;51.178;6.738;2023-09-07T02:37:15;6.90;;;3.92;;
72517;SDS011;60540;51.178;6.738;2023-09-07T02:39:42;5.97;;;3.85;;
72517;SDS011;60540;51.178;6.738;2023-09-07T02:42:07;6.68;;;3.72;;
72517;SDS011;60540;51.178;6.738;2023-09-07T02:44:33;5.03;;;3.20;;
72517;SDS011;60540;51.178;6.738;2023-09-07T02:46:59;5.95;;;3.95;;
72517;SDS011;60540;51.178;6.738;2023-09-07T02:49:25;6.95;;;3.88;;
72517;SDS011;60540;51.178;6.738;2023-09-07T02:51:50;5.97;;;3.50;;
72517;SDS011;60540;51.178;6.738;2023-09-07T02:54:16;5.40;;;3.47;;
72517;SDS011;60540;51.178;6.738;2023-09-07T02:56:42;7.22;;;3.83;;
72517;SDS011;60540;51.178;6.738;2023-09-07T02:59:08;6.95;;;3.65;;
72517;SDS011;60540;51.178;6.738;2023-09-07T03:01:33;8.40;;;3.42;;
72517;SDS011;60540;51.178;6.738;2023-09-07T03:03:59;6.57;;;3.90;;
72517;SDS011;60540;51.178;6.738;2023-09-07T03:06:25;6.75;;;3.63;;
72517;SDS011;60540;51.178;6.738;2023-09-07T03:08:51;6.75;;;3.65;;
72517;SDS011;60540;51.178;6.738;2023-09-07T03:11:17;11.55;;;3.80;;
72517;SDS011;60540;51.178;6.738;2023-09-07T03:13:43;6.82;;;4.15;;
72517;SDS011;60540;51.178;6.738;2023-09-07T03:16:09;7.32;;;3.95;;
72517;SDS011;60540;51.178;6.738;2023-09-07T03:18:36;7.78;;;4.00;;
72517;SDS011;60540;51.178;6.738;2023-09-07T03:21:02;6.82;;;4.63;;
72517;SDS011;60540;51.178;6.738;2023-09-07T03:23:28;6.85;;;3.90;;
72517;SDS011;60540;51.178;6.738;2023-09-07T03:25:54;6.35;;;4.50;;
72517;SDS011;60540;51.178;6.738;2023-09-07T03:28:20;6.05;;;3.88;;
72517;SDS011;60540;51.178;6.738;2023-09-07T03:30:46;8.68;;;3.88;;
72517;SDS011;60540;51.178;6.738;2023-09-07T03:33:12;6.45;;;3.97;;
72517;SDS011;60540;51.178;6.738;2023-09-07T03:35:37;6.97;;;4.25;;
72517;SDS011;60540;51.178;6.738;2023-09-07T03:38:03;5.10;;;3.67;;
72517;SDS011;60540;51.178;6.738;2023-09-07T03:40:29;7.97;;;4.60;;
72517;SDS011;60540;51.178;6.738;2023-09-07T03:42:55;9.35;;;4.90;;
72517;SDS011;60540;51.178;6.738;2023-09-07T03:45:21;6.15;;;4.35;;
72517;SDS011;60540;51.178;6.738;2023-09-07T03:47:47;7.20;;;3.95;;
72517;SDS011;60540;51.178;6.738;2023-09-07T03:50:12;8.45;;;4.55;;
72517;SDS011;60540;51.178;6.738;2023-09-07T03:52:38;7.90;;;4.55;;
72517;SDS011;60540;51.178;6.738;2023-09-07T03:55:04;6.85;;;3.88;;
72517;SDS011;60540;51.178;6.738;2023-09-07T03:57:30;6.55;;;4.22;;
72517;SDS011;60540;51.178;6.738;2023-09-07T03:59:56;9.65;;;4.30;;
72517;SDS011;60540;51.178;6.738;2023-09-07T04:02:23;6.70;;;4.13;;
72517;SDS011;60540;51.178;6.738;2023-09-07T04:04:49;11.38;;;5.15;;
72517;SDS011;60540;51.178;6.738;2023-09-07T04:07:15;6.85;;;4.10;;
72517;SDS011;60540;51.178;6.738;2023-09-07T04:09:41;7.05;;;4.38;;
72517;SDS011;60540;51.178;6.738;2023-09-07T04:12:09;8.00;;;4.43;;
72517;SDS011;60540;51.178;6.738;2023-09-07T04:14:34;9.40;;;4.28;;
72517;SDS011;60540;51.178;6.738;2023-09-07T04:17:01;5.78;;;3.60;;
72517;SDS011;60540;51.178;6.738;2023-09-07T04:19:26;6.68;;;3.97;;
72517;SDS011;60540;51.178;6.738;2023-09-07T04:21:52;5.95;;;4.10;;
72517;SDS011;60540;51.178;6.738;2023-09-07T04:24:18;7.13;;;3.70;;
72517;SDS011;60540;51.178;6.738;2023-09-07T04:26:44;7.32;;;4.32;;
72517;SDS011;60540;51.178;6.738;2023-09-07T04:29:10;6.93;;;4.55;;
72517;SDS011;60540;51.178;6.738;2023-09-07T04:31:37;9.18;;;4.30;;
72517;SDS011;60540;51.178;6.738;2023-09-07T04:34:02;8.88;;;4.65;;
72517;SDS011;60540;51.178;6.738;2023-09-07T04:36:28;7.90;;;4.55;;
72517;SDS011;60540;51.178;6.738;2023-09-07T04:38:54;6.97;;;3.88;;
72517;SDS011;60540;51.178;6.738;2023-09-07T04:41:20;7.80;;;4.32;;
72517;SDS011;60540;51.178;6.738;2023-09-07T04:43:45;8.35;;;4.47;;
72517;SDS011;60540;51.178;6.738;2023-09-07T04:46:12;7.50;;;4.78;;
72517;SDS011;60540;51.178;6.738;2023-09-07T04:48:38;6.00;;;3.95;;
72517;SDS011;60540;51.178;6.738;2023-09-07T04:51:07;7.35;;;4.10;;
72517;SDS011;60540;51.178;6.738;2023-09-07T04:53:34;6.63;;;3.70;;
72517;SDS011;60540;51.178;6.738;2023-09-07T04:56:01;7.63;;;4.60;;
72517;SDS011;60540;51.178;6.738;2023-09-07T05:00:53;6.93;;;4.22;;
72517;SDS011;60540;51.178;6.738;2023-09-07T05:03:19;6.45;;;4.25;;
72517;SDS011;60540;51.178;6.738;2023-09-07T05:05:50;8.02;;;4.97;;
72517;SDS011;60540;51.178;6.738;2023-09-07T05:08:16;6.75;;;4.28;;
72517;SDS011;60540;51.178;6.738;2023-09-07T05:10:42;8.07;;;4.03;;
72517;SDS011;60540;51.178;6.738;2023-09-07T05:13:08;9.23;;;4.95;;
72517;SDS011;60540;51.178;6.738;2023-09-07T05:15:34;11.45;;;5.07;;
72517;SDS011;60540;51.178;6.738;2023-09-07T05:17:59;8.77;;;5.35;;
72517;SDS011;60540;51.178;6.738;2023-09-07T05:20:25;8.77;;;4.80;;
72517;SDS011;60540;51.178;6.738;2023-09-07T05:22:52;11.73;;;4.53;;
72517;SDS011;60540;51.178;6.738;2023-09-07T05:25:18;8.80;;;4.95;;
72517;SDS011;60540;51.178;6.738;2023-09-07T05:27:45;9.30;;;5.25;;
72517;SDS011;60540;51.178;6.738;2023-09-07T05:30:11;8.48;;;5.03;;
72517;SDS011;60540;51.178;6.738;2023-09-07T05:32:37;9.80;;;5.28;;
72517;SDS011;60540;51.178;6.738;2023-09-07T05:35:03;10.40;;;4.75;;
72517;SDS011;60540;51.178;6.738;2023-09-07T05:37:29;8.68;;;4.90;;
72517;SDS011;60540;51.178;6.738;2023-09-07T05:39:55;10.15;;;4.93;;
72517;SDS011;60540;51.178;6.738;2023-09-07T05:42:21;9.40;;;5.03;;
72517;SDS011;60540;51.178;6.738;2023-09-07T05:44:47;11.23;;;5.60;;
72517;SDS011;60540;51.178;6.738;2023-09-07T05:47:13;7.85;;;4.80;;
72517;SDS011;60540;51.178;6.738;2023-09-07T05:49:39;8.95;;;5.43;;
72517;SDS011;60540;51.178;6.738;2023-09-07T05:52:04;6.88;;;4.78;;
72517;SDS011;60540;51.178;6.738;2023-09-07T05:54:30;7.03;;;4.25;;
72517;SDS011;60540;51.178;6.738;2023-09-07T05:56:56;7.10;;;4.95;;
72517;SDS011;60540;51.178;6.738;2023-09-07T05:59:22;6.60;;;4.40;;
72517;SDS011;60540;51.178;6.738;2023-09-07T06:01:47;7.72;;;4.63;;
72517;SDS011;60540;51.178;6.738;2023-09-07T06:04:13;6.93;;;4.65;;
72517;SDS011;60540;51.178;6.738;2023-09-07T06:06:39;6.60;;;4.28;;
72517;SDS011;60540;51.178;6.738;2023-09-07T06:09:04;6.85;;;4.47;;
72517;SDS011;60540;51.178;6.738;2023-09-07T06:11:30;13.68;;;5.50;;
72517;SDS011;60540;51.178;6.738;2023-09-07T06:13:57;10.65;;;4.65;;
72517;SDS011;60540;51.178;6.738;2023-09-07T06:16:23;6.50;;;4.40;;
72517;SDS011;60540;51.178;6.738;2023-09-07T06:18:49;7.45;;;4.10;;
72517;SDS011;60540;51.178;6.738;2023-09-07T06:21:15;6.43;;;3.38;;
72517;SDS011;60540;51.178;6.738;2023-09-07T06:23:41;6.05;;;4.20;;
72517;SDS011;60540;51.178;6.738;2023-09-07T06:26:07;8.57;;;4.10;;
72517;SDS011;60540;51.178;6.738;2023-09-07T06:28:33;8.00;;;3.97;;
72517;SDS011;60540;51.178;6.738;2023-09-07T06:30:58;7.47;;;3.83;;
72517;SDS011;60540;51.178;6.738;2023-09-07T06:33:24;7.35;;;4.18;;
72517;SDS011;60540;51.178;6.738;2023-09-07T06:35:50;6.50;;;4.00;;
72517;SDS011;60540;51.178;6.738;2023-09-07T06:38:16;5.55;;;3.40;;
72517;SDS011;60540;51.178;6.738;2023-09-07T06:40:46;6.32;;;4.22;;
72517;SDS011;60540;51.178;6.738;2023-09-07T06:43:13;6.72;;;4.70;;
72517;SDS011;60540;51.178;6.738;2023-09-07T06:45:38;8.30;;;4.60;;
72517;SDS011;60540;51.178;6.738;2023-09-07T06:48:04;8.85;;;4.68;;
72517;SDS011;60540;51.178;6.738;2023-09-07T06:50:30;8.32;;;4.20;;
72517;SDS011;60540;51.178;6.738;2023-09-07T06:52:56;6.45;;;4.18;;
72517;SDS011;60540;51.178;6.738;2023-09-07T06:55:22;8.27;;;4.75;;
72517;SDS011;60540;51.178;6.738;2023-09-07T06:57:47;7.03;;;4.50;;
72517;SDS011;60540;51.178;6.738;2023-09-07T07:00:13;9.35;;;4.47;;
72517;SDS011;60540;51.178;6.738;2023-09-07T07:02:39;8.32;;;4.53;;
72517;SDS011;60540;51.178;6.738;2023-09-07T07:05:05;7.60;;;4.63;;
72517;SDS011;60540;51.178;6.738;2023-09-07T07:07:32;8.45;;;3.78;;
72517;SDS011;60540;51.178;6.738;2023-09-07T07:09:58;6.53;;;4.10;;
72517;SDS011;60540;51.178;6.738;2023-09-07T07:12:24;9.60;;;5.20;;
72517;SDS011;60540;51.178;6.738;2023-09-07T07:14:51;8.27;;;5.00;;
72517;SDS011;60540;51.178;6.738;2023-09-07T07:17:17;9.27;;;4.30;;
72517;SDS011;60540;51.178;6.738;2023-09-07T07:19:43;6.45;;;4.13;;
72517;SDS011;60540;51.178;6.738;2023-09-07T07:22:09;6.85;;;4.20;;
72517;SDS011;60540;51.178;6.738;2023-09-07T07:24:34;8.38;;;4.47;;
72517;SDS011;60540;51.178;6.738;2023-09-07T07:27:00;8.38;;;3.95;;
72517;SDS011;60540;51.178;6.738;2023-09-07T07:29:26;6.13;;;3.55;;
72517;SDS011;60540;51.178;6.738;2023-09-07T07:31:52;6.40;;;3.65;;
72517;SDS011;60540;51.178;6.738;2023-09-07T07:34:18;5.38;;;3.53;;
72517;SDS011;60540;51.178;6.738;2023-09-07T07:36:44;6.07;;;3.65;;
72517;SDS011;60540;51.178;6.738;2023-09-07T07:39:09;6.55;;;3.63;;
72517;SDS011;60540;51.178;6.738;2023-09-07T07:41:35;6.22;;;3.72;;
72517;SDS011;60540;51.178;6.738;2023-09-07T07:44:01;6.47;;;3.70;;
72517;SDS011;60540;51.178;6.738;2023-09-07T07:46:27;5.15;;;3.25;;
72517;SDS011;60540;51.178;6.738;2023-09-07T07:48:52;5.53;;;3.10;;
72517;SDS011;60540;51.178;6.738;2023-09-07T07:51:18;7.57;;;3.47;;
72517;SDS011;60540;51.178;6.738;2023-09-07T07:53:44;6.18;;;3.33;;
72517;SDS011;60540;51.178;6.738;2023-09-07T07:56:19;7.13;;;3.53;;
72517;SDS011;60540;51.178;6.738;2023-09-07T07:58:45;6.55;;;3.90;;
72517;SDS011;60540;51.178;6.738;2023-09-07T08:01:14;5.20;;;3.35;;
72517;SDS011;60540;51.178;6.738;2023-09-07T08:03:40;5.50;;;3.28;;
72517;SDS011;60540;51.178;6.738;2023-09-07T08:06:07;6.50;;;3.40;;
72517;SDS011;60540;51.178;6.738;2023-09-07T08:08:32;5.97;;;3.53;;
72517;SDS011;60540;51.178;6.738;2023-09-07T08:10:58;6.78;;;3.75;;
72517;SDS011;60540;51.178;6.738;2023-09-07T08:13:25;7.57;;;3.67;;
72517;SDS011;60540;51.178;6.738;2023-09-07T08:15:51;6.93;;;4.00;;
72517;SDS011;60540;51.178;6.738;2023-09-07T08:18:16;6.25;;;3.88;;
72517;SDS011;60540;51.178;6.738;2023-09-07T08:20:42;6.03;;;3.38;;
72517;SDS011;60540;51.178;6.738;2023-09-07T08:23:08;7.63;;;3.50;;
72517;SDS011;60540;51.178;6.738;2023-09-07T08:25:36;7.13;;;3.75;;
72517;SDS011;60540;51.178;6.738;2023-09-07T08:28:01;5.72;;;3.50;;
72517;SDS011;60540;51.178;6.738;2023-09-07T08:30:31;6.63;;;3.83;;
72517;SDS011;60540;51.178;6.738;2023-09-07T08:32:56;5.40;;;3.25;;
72517;SDS011;60540;51.178;6.738;2023-09-07T08:35:23;6.78;;;3.50;;
72517;SDS011;60540;51.178;6.738;2023-09-07T08:37:53;5.88;;;3.40;;
72517;SDS011;60540;51.178;6.738;2023-09-07T08:40:19;6.40;;;3.47;;
72517;SDS011;60540;51.178;6.738;2023-09-07T08:42:46;6.28;;;3.40;;
72517;SDS011;60540;51.178;6.738;2023-09-07T08:45:13;5.00;;;3.28;;
72517;SDS011;60540;51.178;6.738;2023-09-07T08:47:40;6.93;;;3.50;;
72517;SDS011;60540;51.178;6.738;2023-09-07T08:50:07;6.05;;;3.55;;
72517;SDS011;60540;51.178;6.738;2023-09-07T08:52:33;5.47;;;3.38;;
72517;SDS011;60540;51.178;6.738;2023-09-07T08:55:00;7.75;;;3.83;;
72517;SDS011;60540;51.178;6.738;2023-09-07T08:57:29;5.88;;;3.60;;
72517;SDS011;60540;51.178;6.738;2023-09-07T08:59:55;6.05;;;3.67;;
72517;SDS011;60540;51.178;6.738;2023-09-07T09:02:21;6.50;;;3.53;;
72517;SDS011;60540;51.178;6.738;2023-09-07T09:04:47;6.60;;;3.30;;
72517;SDS011;60540;51.178;6.738;2023-09-07T09:07:13;8.43;;;3.72;;
72517;SDS011;60540;51.178;6.738;2023-09-07T09:09:38;5.03;;;3.15;;
72517;SDS011;60540;51.178;6.738;2023-09-07T09:12:11;6.85;;;3.75;;
72517;SDS011;60540;51.178;6.738;2023-09-07T09:14:42;7.30;;;3.97;;
72517;SDS011;60540;51.178;6.738;2023-09-07T09:17:13;5.72;;;3.33;;
72517;SDS011;60540;51.178;6.738;2023-09-07T09:19:39;5.38;;;3.15;;
72517;SDS011;60540;51.178;6.738;2023-09-07T09:22:06;5.97;;;3.47;;
72517;SDS011;60540;51.178;6.738;2023-09-07T09:24:33;5.20;;;3.30;;
72517;SDS011;60540;51.178;6.738;2023-09-07T09:27:00;5.90;;;3.50;;
72517;SDS011;60540;51.178;6.738;2023-09-07T09:29:26;5.38;;;2.92;;
72517;SDS011;60540;51.178;6.738;2023-09-07T09:31:52;6.00;;;3.55;;
72517;SDS011;60540;51.178;6.738;2023-09-07T09:34:18;5.93;;;3.45;;
72517;SDS011;60540;51.178;6.738;2023-09-07T09:36:45;4.80;;;3.58;;
72517;SDS011;60540;51.178;6.738;2023-09-07T09:39:21;5.25;;;3.40;;
72517;SDS011;60540;51.178;6.738;2023-09-07T09:41:48;5.30;;;3.20;;
72517;SDS011;60540;51.178;6.738;2023-09-07T09:44:14;5.85;;;3.47;;
72517;SDS011;60540;51.178;6.738;2023-09-07T09:46:41;7.43;;;3.80;;
72517;SDS011;60540;51.178;6.738;2023-09-07T09:49:08;5.32;;;3.38;;
72517;SDS011;60540;51.178;6.738;2023-09-07T09:51:33;6.78;;;3.25;;
72517;SDS011;60540;51.178;6.738;2023-09-07T09:54:00;4.82;;;3.22;;
72517;SDS011;60540;51.178;6.738;2023-09-07T09:56:27;5.35;;;3.60;;
72517;SDS011;60540;51.178;6.738;2023-09-07T09:58:53;5.25;;;3.22;;
72517;SDS011;60540;51.178;6.738;2023-09-07T10:01:18;5.90;;;3.53;;
72517;SDS011;60540;51.178;6.738;2023-09-07T10:03:46;5.15;;;3.47;;
72517;SDS011;60540;51.178;6.738;2023-09-07T10:06:20;5.00;;;3.58;;
72517;SDS011;60540;51.178;6.738;2023-09-07T10:11:27;9.25;;;4.10;;
72517;SDS011;60540;51.178;6.738;2023-09-07T10:13:58;8.00;;;4.07;;
72517;SDS011;60540;51.178;6.738;2023-09-07T10:16:24;5.95;;;3.30;;
72517;SDS011;60540;51.178;6.738;2023-09-07T10:18:52;7.18;;;3.35;;
72517;SDS011;60540;51.178;6.738;2023-09-07T10:21:18;5.72;;;3.15;;
72517;SDS011;60540;51.178;6.738;2023-09-07T10:23:45;5.90;;;3.42;;
72517;SDS011;60540;51.178;6.738;2023-09-07T10:26:12;5.78;;;3.53;;
72517;SDS011;60540;51.178;6.738;2023-09-07T10:28:41;5.50;;;3.55;;
72517;SDS011;60540;51.178;6.738;2023-09-07T10:31:15;7.68;;;3.53;;
72517;SDS011;60540;51.178;6.738;2023-09-07T10:33:43;7.15;;;4.03;;
72517;SDS011;60540;51.178;6.738;2023-09-07T10:36:08;4.63;;;3.00;;
72517;SDS011;60540;51.178;6.738;2023-09-07T10:38:46;5.68;;;3.58;;
72517;SDS011;60540;51.178;6.738;2023-09-07T10:41:11;6.00;;;3.45;;
72517;SDS011;60540;51.178;6.738;2023-09-07T10:43:46;6.15;;;3.47;;
72517;SDS011;60540;51.178;6.738;2023-09-07T10:46:18;5.53;;;3.58;;
72517;SDS011;60540;51.178;6.738;2023-09-07T10:48:45;5.32;;;3.35;;
72517;SDS011;60540;51.178;6.738;2023-09-07T10:51:14;4.88;;;3.13;;
72517;SDS011;60540;51.178;6.738;2023-09-07T10:53:40;4.82;;;3.17;;
72517;SDS011;60540;51.178;6.738;2023-09-07T10:56:06;4.60;;;3.13;;
72517;SDS011;60540;51.178;6.738;2023-09-07T10:58:32;7.03;;;3.42;;
72517;SDS011;60540;51.178;6.738;2023-09-07T11:00:59;5.82;;;3.10;;
72517;SDS011;60540;51.178;6.738;2023-09-07T11:03:26;5.03;;;3.30;;
72517;SDS011;60540;51.178;6.738;2023-09-07T11:05:56;6.65;;;3.42;;
72517;SDS011;60540;51.178;6.738;2023-09-07T11:08:29;6.50;;;3.17;;
72517;SDS011;60540;51.178;6.738;2023-09-07T11:10:55;4.07;;;2.75;;
72517;SDS011;60540;51.178;6.738;2023-09-07T11:13:21;5.55;;;3.25;;
72517;SDS011;60540;51.178;6.738;2023-09-07T11:15:48;4.47;;;2.70;;
72517;SDS011;60540;51.178;6.738;2023-09-07T11:18:19;5.40;;;3.50;;
72517;SDS011;60540;51.178;6.738;2023-09-07T11:20:46;5.13;;;2.90;;
72517;SDS011;60540;51.178;6.738;2023-09-07T11:23:12;5.60;;;3.40;;
72517;SDS011;60540;51.178;6.738;2023-09-07T11:25:38;5.15;;;3.08;;
72517;SDS011;60540;51.178;6.738;2023-09-07T11:28:04;6.05;;;3.28;;
72517;SDS011;60540;51.178;6.738;2023-09-07T11:30:34;4.78;;;3.22;;
72517;SDS011;60540;51.178;6.738;2023-09-07T11:33:01;4.85;;;3.33;;
72517;SDS011;60540;51.178;6.738;2023-09-07T11:35:28;4.28;;;2.95;;
72517;SDS011;60540;51.178;6.738;2023-09-07T11:40:19;6.00;;;3.03;;
72517;SDS011;60540;51.178;6.738;2023-09-07T11:42:45;6.68;;;3.08;;
72517;SDS011;60540;51.178;6.738;2023-09-07T11:47:39;4.50;;;3.03;;
72517;SDS011;60540;51.178;6.738;2023-09-07T11:50:05;6.40;;;2.88;;
72517;SDS011;60540;51.178;6.738;2023-09-07T11:52:32;4.00;;;2.70;;
72517;SDS011;60540;51.178;6.738;2023-09-07T11:57:23;6.72;;;3.17;;
72517;SDS011;60540;51.178;6.738;2023-09-07T11:59:50;7.82;;;3.35;;
72517;SDS011;60540;51.178;6.738;2023-09-07T12:02:16;5.78;;;3.08;;
72517;SDS011;60540;51.178;6.738;2023-09-07T12:04:42;4.85;;;3.08;;
72517;SDS011;60540;51.178;6.738;2023-09-07T12:07:10;8.30;;;3.20;;
72517;SDS011;60540;51.178;6.738;2023-09-07T12:09:35;5.07;;;3.05;;
72517;SDS011;60540;51.178;6.738;2023-09-07T12:12:02;5.93;;;3.15;;
72517;SDS011;60540;51.178;6.738;2023-09-07T12:14:29;4.15;;;3.05;;
72517;SDS011;60540;51.178;6.738;2023-09-07T12:16:55;5.47;;;3.00;;
72517;SDS011;60540;51.178;6.738;2023-09-07T12:19:20;4.53;;;2.85;;
72517;SDS011;60540;51.178;6.738;2023-09-07T12:21:46;5.35;;;2.90;;
72517;SDS011;60540;51.178;6.738;2023-09-07T12:26:38;4.50;;;2.90;;
72517;SDS011;60540;51.178;6.738;2023-09-07T12:29:03;5.70;;;2.90;;
72517;SDS011;60540;51.178;6.738;2023-09-07T12:31:29;4.35;;;3.22;;
72517;SDS011;60540;51.178;6.738;2023-09-07T12:33:56;4.68;;;3.03;;
72517;SDS011;60540;51.178;6.738;2023-09-07T12:36:22;5.15;;;3.13;;
72517;SDS011;60540;51.178;6.738;2023-09-07T12:38:48;8.35;;;3.20;;
72517;SDS011;60540;51.178;6.738;2023-09-07T12:41:14;4.95;;;2.80;;
72517;SDS011;60540;51.178;6.738;2023-09-07T12:43:41;5.22;;;3.05;;
72517;SDS011;60540;51.178;6.738;2023-09-07T12:46:08;5.55;;;2.90;;
72517;SDS011;60540;51.178;6.738;2023-09-07T12:48:34;5.47;;;3.00;;
72517;SDS011;60540;51.178;6.738;2023-09-07T12:51:00;7.13;;;3.08;;
72517;SDS011;60540;51.178;6.738;2023-09-07T12:53:26;4.50;;;2.95;;
72517;SDS011;60540;51.178;6.738;2023-09-07T12:55:53;4.30;;;2.90;;
72517;SDS011;60540;51.178;6.738;2023-09-07T12:58:19;4.95;;;2.97;;
72517;SDS011;60540;51.178;6.738;2023-09-07T13:00:46;4.25;;;2.75;;
72517;SDS011;60540;51.178;6.738;2023-09-07T13:03:13;4.97;;;2.95;;
72517;SDS011;60540;51.178;6.738;2023-09-07T13:05:40;4.75;;;3.03;;
72517;SDS011;60540;51.178;6.738;2023-09-07T13:08:05;5.13;;;3.50;;
72517;SDS011;60540;51.178;6.738;2023-09-07T13:10:32;6.75;;;3.00;;
72517;SDS011;60540;51.178;6.738;2023-09-07T13:12:58;4.95;;;3.05;;
72517;SDS011;60540;51.178;6.738;2023-09-07T13:15:24;4.45;;;2.97;;
72517;SDS011;60540;51.178;6.738;2023-09-07T13:17:49;5.07;;;3.28;;
72517;SDS011;60540;51.178;6.738;2023-09-07T13:20:15;4.15;;;2.90;;
72517;SDS011;60540;51.178;6.738;2023-09-07T13:22:41;6.70;;;3.42;;
72517;SDS011;60540;51.178;6.738;2023-09-07T13:25:07;5.60;;;3.42;;
72517;SDS011;60540;51.178;6.738;2023-09-07T13:27:33;5.03;;;3.00;;
72517;SDS011;60540;51.178;6.738;2023-09-07T13:30:00;7.07;;;3.30;;
72517;SDS011;60540;51.178;6.738;2023-09-07T13:32:27;4.63;;;3.28;;
72517;SDS011;60540;51.178;6.738;2023-09-07T13:34:53;5.63;;;3.38;;
72517;SDS011;60540;51.178;6.738;2023-09-07T13:37:18;4.72;;;2.95;;
72517;SDS011;60540;51.178;6.738;2023-09-07T13:39:44;4.90;;;3.65;;
72517;SDS011;60540;51.178;6.738;2023-09-07T13:42:10;5.05;;;3.33;;
72517;SDS011;60540;51.178;6.738;2023-09-07T13:44:36;4.85;;;2.97;;
72517;SDS011;60540;51.178;6.738;2023-09-07T13:47:02;5.10;;;3.17;;
72517;SDS011;60540;51.178;6.738;2023-09-07T13:49:28;4.38;;;3.08;;
72517;SDS011;60540;51.178;6.738;2023-09-07T13:51:53;6.28;;;3.42;;
72517;SDS011;60540;51.178;6.738;2023-09-07T13:54:19;4.55;;;3.30;;
72517;SDS011;60540;51.178;6.738;2023-09-07T13:56:45;5.25;;;3.00;;
72517;SDS011;60540;51.178;6.738;2023-09-07T13:59:12;4.93;;;3.17;;
72517;SDS011;60540;51.178;6.738;2023-09-07T14:01:37;4.50;;;3.00;;
72517;SDS011;60540;51.178;6.738;2023-09-07T14:04:04;5.28;;;3.22;;
72517;SDS011;60540;51.178;6.738;2023-09-07T14:06:30;5.00;;;3.30;;
72517;SDS011;60540;51.178;6.738;2023-09-07T14:08:56;4.13;;;2.88;;
72517;SDS011;60540;51.178;6.738;2023-09-07T14:11:21;5.40;;;3.47;;
72517;SDS011;60540;51.178;6.738;2023-09-07T14:13:50;4.43;;;3.08;;
72517;SDS011;60540;51.178;6.738;2023-09-07T14:16:20;4.78;;;3.50;;
72517;SDS011;60540;51.178;6.738;2023-09-07T14:18:46;4.47;;;3.28;;
72517;SDS011;60540;51.178;6.738;2023-09-07T14:21:13;5.25;;;2.95;;
72517;SDS011;60540;51.178;6.738;2023-09-07T14:23:39;4.38;;;3.13;;
72517;SDS011;60540;51.178;6.738;2023-09-07T14:26:05;4.60;;;3.60;;
72517;SDS011;60540;51.178;6.738;2023-09-07T14:28:31;5.13;;;2.92;;
72517;SDS011;60540;51.178;6.738;2023-09-07T14:30:57;4.30;;;3.10;;
72517;SDS011;60540;51.178;6.738;2023-09-07T14:33:24;5.97;;;3.45;;
72517;SDS011;60540;51.178;6.738;2023-09-07T14:35:50;4.57;;;2.85;;
72517;SDS011;60540;51.178;6.738;2023-09-07T14:38:19;5.18;;;3.05;;
72517;SDS011;60540;51.178;6.738;2023-09-07T14:40:46;4.97;;;3.40;;
72517;SDS011;60540;51.178;6.738;2023-09-07T14:43:14;4.60;;;2.95;;
72517;SDS011;60540;51.178;6.738;2023-09-07T14:45:40;5.47;;;3.22;;
72517;SDS011;60540;51.178;6.738;2023-09-07T14:48:06;4.40;;;3.05;;
72517;SDS011;60540;51.178;6.738;2023-09-07T14:50:31;5.45;;;3.20;;
72517;SDS011;60540;51.178;6.738;2023-09-07T14:52:57;4.07;;;2.70;;
72517;SDS011;60540;51.178;6.738;2023-09-07T14:55:23;4.82;;;3.00;;
72517;SDS011;60540;51.178;6.738;2023-09-07T14:57:49;6.13;;;3.33;;
72517;SDS011;60540;51.178;6.738;2023-09-07T15:00:14;4.93;;;2.90;;
72517;SDS011;60540;51.178;6.738;2023-09-07T15:02:40;5.22;;;3.13;;